Time;durP1;ratioP1;P1;durP2;ratioP2;P2;SDS_P1;SDS_P2;PMS_P1;PMS_P2;Temp;Humidity;BMP_temperature;BMP_pressure;BME280_temperature;BME280_humidity;BME280_pressure;Samples;Min_cycle;Max_cycle;Signal;HPM_P1;HPM_P2
2021/09/07 00:01:50;;;;;;;7.87;7.10;;;21.30;99.90;;;21.65;58.63;101982.97;5025147;27;103570;-52
2021/09/07 00:04:15;;;;;;;7.33;6.60;;;21.40;99.90;;;21.67;58.48;101976.53;5024543;27;96670;-53
2021/09/07 00:06:41;;;;;;;8.03;7.03;;;21.40;99.90;;;21.72;58.26;101970.06;5026425;27;96957;-51
2021/09/07 00:09:07;;;;;;;7.90;7.10;;;21.50;99.90;;;21.76;58.36;101980.50;5028913;27;96653;-53
2021/09/07 00:11:34;;;;;;;7.57;6.87;;;21.60;99.90;;;21.80;58.09;101987.41;5020941;27;97414;-52
2021/09/07 00:14:00;;;;;;;7.10;6.40;;;21.60;99.90;;;21.84;58.08;101982.69;5025208;27;98447;-53
2021/09/07 00:16:26;;;;;;;7.70;6.90;;;21.70;99.90;;;21.84;58.01;101985.38;5017336;27;101370;-50
2021/09/07 00:18:52;;;;;;;7.50;6.80;;;21.60;99.90;;;21.83;58.11;101983.66;5028919;27;97004;-51
2021/09/07 00:21:18;;;;;;;7.47;6.77;;;21.60;99.90;;;21.85;58.01;101987.13;5025384;27;98497;-50
2021/09/07 00:23:44;;;;;;;7.63;6.93;;;21.60;99.90;;;21.87;58.08;101982.53;5045881;27;98642;-53
2021/09/07 00:26:10;;;;;;;8.00;7.20;;;21.70;99.90;;;21.88;57.93;101984.25;5029520;27;103018;-55
2021/09/07 00:28:36;;;;;;;6.80;6.20;;;21.70;99.90;;;21.91;57.65;101986.75;5042303;27;99917;-54
2021/09/07 00:31:01;;;;;;;7.97;7.10;;;21.80;99.90;;;21.95;57.83;101982.91;5045950;27;97852;-53
2021/09/07 00:33:27;;;;;;;8.17;7.37;;;21.80;99.90;;;21.98;57.68;101980.00;5024694;27;97042;-49
2021/09/07 00:35:53;;;;;;;7.97;7.17;;;21.80;99.90;;;22.01;57.57;101973.59;5031431;27;96980;-54
2021/09/07 00:38:19;;;;;;;7.87;7.07;;;21.90;99.90;;;22.06;57.44;101977.75;5024955;27;97561;-54
2021/09/07 00:40:44;;;;;;;7.40;6.67;;;21.90;99.90;;;22.08;57.39;101973.13;5030786;27;99082;-49
2021/09/07 00:43:10;;;;;;;8.30;7.50;;;22.00;99.90;;;22.03;57.45;101972.53;5023342;27;97188;-55
2021/09/07 00:45:36;;;;;;;9.60;8.60;;;21.90;99.90;;;21.99;57.56;101973.72;5032258;27;96747;-53
2021/09/07 00:48:03;;;;;;;9.17;7.90;;;21.80;99.90;;;21.96;57.74;101965.81;5030086;27;97223;-55
2021/09/07 00:50:28;;;;;;;7.77;6.97;;;21.70;99.90;;;21.98;57.68;101966.56;5021053;27;99835;-51
2021/09/07 00:52:55;;;;;;;10.00;7.80;;;21.80;99.90;;;22.00;57.61;101967.38;5031021;27;98312;-52
2021/09/07 00:55:24;;;;;;;18.10;14.93;;;21.80;99.90;;;21.98;57.50;101974.63;5021667;27;98140;-53
2021/09/07 00:57:51;;;;;;;18.07;15.07;;;21.80;99.90;;;21.94;57.70;101975.78;5033138;27;99285;-52
2021/09/07 01:00:17;;;;;;;10.97;9.73;;;21.70;99.90;;;21.89;57.88;101975.22;5021749;27;97358;-50
2021/09/07 01:02:43;;;;;;;8.70;7.80;;;21.60;99.90;;;21.87;58.03;101966.41;5031247;27;97424;-52
2021/09/07 01:05:10;;;;;;;8.67;7.70;;;21.60;99.90;;;21.87;58.03;101974.47;5023358;27;97611;-52
2021/09/07 01:07:36;;;;;;;12.50;10.70;;;21.60;99.90;;;21.83;58.15;101967.53;5026798;27;103096;-53
2021/09/07 01:10:06;;;;;;;10.43;9.40;;;21.50;99.90;;;21.76;58.27;101968.91;5025426;27;97496;-53
2021/09/07 01:12:33;;;;;;;13.60;12.20;;;21.40;99.90;;;21.68;58.30;101962.16;5024395;27;97359;-55
2021/09/07 01:14:59;;;;;;;9.37;8.23;;;21.30;99.90;;;21.62;58.76;101965.22;5029740;27;97574;-52
2021/09/07 01:17:26;;;;;;;11.73;9.20;;;21.20;99.90;;;21.60;58.64;101956.41;5023115;27;97212;-50
2021/09/07 01:19:51;;;;;;;9.23;8.33;;;21.20;99.90;;;21.60;58.79;101953.72;5021024;27;97294;-52
2021/09/07 01:22:21;;;;;;;8.53;7.70;;;21.20;99.90;;;21.61;58.74;101960.81;5011851;27;97410;-51
2021/09/07 01:24:48;;;;;;;10.40;9.03;;;21.30;99.90;;;21.61;58.81;101960.81;5024219;27;97453;-51
2021/09/07 01:27:15;;;;;;;9.27;8.20;;;21.30;99.90;;;21.59;58.73;101962.75;5021041;27;99372;-52
2021/09/07 01:29:46;;;;;;;9.03;8.13;;;21.30;99.90;;;21.58;58.77;101971.75;5028085;27;97693;-49
2021/09/07 01:32:13;;;;;;;8.97;8.07;;;21.30;99.90;;;21.56;58.77;101968.31;5023294;27;97397;-51
2021/09/07 01:34:39;;;;;;;10.50;8.77;;;21.30;99.90;;;21.54;58.76;101964.81;5045197;27;97321;-52
2021/09/07 01:37:07;;;;;;;10.27;9.00;;;21.20;99.90;;;21.49;58.99;101953.50;5025384;27;98291;-53
2021/09/07 01:39:33;;;;;;;11.43;9.90;;;21.10;99.90;;;21.47;59.12;101958.13;5025948;27;97649;-51
2021/09/07 01:42:00;;;;;;;9.73;8.47;;;21.10;99.90;;;21.47;59.16;101958.13;5028397;27;97800;-51
2021/09/07 01:44:26;;;;;;;9.60;8.60;;;21.10;99.90;;;21.49;59.00;101964.25;5026248;27;97399;-48
2021/09/07 01:46:52;;;;;;;11.10;10.00;;;21.10;99.90;;;21.47;58.98;101963.50;5025411;27;100145;-51
2021/09/07 01:49:18;;;;;;;9.63;8.60;;;21.10;99.90;;;21.43;59.08;101961.09;5018835;27;98180;-50
2021/09/07 01:51:45;;;;;;;8.47;7.63;;;21.10;99.90;;;21.39;59.28;101953.19;5029123;27;97457;-51
2021/09/07 01:54:12;;;;;;;8.53;7.57;;;21.10;99.90;;;21.41;59.28;101958.50;5022719;27;97569;-56
2021/09/07 01:56:42;;;;;;;8.30;7.43;;;21.00;99.90;;;21.44;59.16;101958.31;5034705;27;97106;-47
2021/09/07 01:59:09;;;;;;;8.73;7.90;;;21.10;99.90;;;21.44;59.15;101947.56;5028785;27;98259;-51
2021/09/07 02:01:35;;;;;;;8.90;8.00;;;21.10;99.90;;;21.44;59.09;101955.63;5022023;27;96831;-52
2021/09/07 02:04:01;;;;;;;8.60;7.80;;;21.10;99.90;;;21.48;59.11;101945.56;5028303;27;96779;-52
2021/09/07 02:06:28;;;;;;;9.00;8.10;;;21.20;99.90;;;21.51;58.93;101954.28;5030275;27;97082;-54
2021/09/07 02:08:54;;;;;;;9.13;7.80;;;21.20;99.90;;;21.52;59.11;101958.69;5031312;27;97039;-52
2021/09/07 02:11:20;;;;;;;11.07;9.97;;;21.20;99.90;;;21.48;59.07;101953.63;5031139;27;96936;-52
2021/09/07 02:13:46;;;;;;;9.17;8.27;;;21.10;99.90;;;21.48;59.21;101958.97;5038816;27;104477;-52
2021/09/07 02:16:11;;;;;;;8.73;7.83;;;21.10;99.90;;;21.47;59.06;101958.13;5022854;27;100971;-54
2021/09/07 02:18:37;;;;;;;8.87;7.97;;;21.10;99.90;;;21.48;59.37;101943.75;5033171;27;99907;-48
2021/09/07 02:21:03;;;;;;;10.03;8.93;;;21.10;99.90;;;21.45;59.11;101953.81;5026405;27;97385;-54
2021/09/07 02:23:29;;;;;;;9.77;8.83;;;21.10;99.90;;;21.43;59.30;101959.28;5023623;27;99181;-52
2021/09/07 02:25:55;;;;;;;9.87;8.87;;;21.00;99.90;;;21.41;59.42;101950.47;5028084;27;100094;-50
2021/09/07 02:28:21;;;;;;;12.60;11.07;;;21.00;99.90;;;21.34;59.52;101963.38;5015213;27;111164;-52
2021/09/07 02:30:46;;;;;;;9.23;8.27;;;20.90;99.90;;;21.31;59.63;101962.69;5043089;27;97259;-50
2021/09/07 02:33:12;;;;;;;9.80;8.63;;;20.90;99.90;;;21.31;59.73;101957.31;5027356;27;97428;-50
2021/09/07 02:35:38;;;;;;;8.73;7.83;;;20.90;99.90;;;21.32;59.60;101953.69;5025367;27;108693;-47
2021/09/07 02:38:04;;;;;;;8.03;7.23;;;20.90;99.90;;;21.31;59.51;101957.31;5028457;27;97022;-50
2021/09/07 02:40:30;;;;;;;8.67;7.67;;;20.90;99.90;;;21.33;59.71;101945.53;5022738;27;97175;-52
2021/09/07 02:42:57;;;;;;;9.40;8.50;;;21.00;99.90;;;21.37;59.37;101933.66;5025177;27;97146;-54
2021/09/07 02:45:22;;;;;;;8.17;7.33;;;21.00;99.90;;;21.42;59.21;101933.38;5018554;27;98287;-51
2021/09/07 02:47:48;;;;;;;9.50;8.23;;;21.10;99.90;;;21.46;59.26;101924.19;5025902;27;97479;-50
2021/09/07 02:50:17;;;;;;;9.60;8.53;;;21.20;99.90;;;21.52;59.12;101926.47;5022646;27;96843;-48
2021/09/07 02:52:43;;;;;;;8.70;7.80;;;21.30;99.90;;;21.55;58.95;101928.97;5022973;27;98006;-52
2021/09/07 02:55:10;;;;;;;12.33;11.10;;;21.30;99.90;;;21.50;58.96;101925.72;5031461;27;99013;-53
2021/09/07 02:57:36;;;;;;;14.83;10.87;;;21.20;99.90;;;21.46;58.92;101929.56;5025641;27;103897;-50
2021/09/07 03:00:06;;;;;;;12.00;10.70;;;21.10;99.90;;;21.39;59.24;101928.19;5023031;27;97747;-48
2021/09/07 03:02:32;;;;;;;11.23;9.20;;;21.00;99.90;;;21.29;59.50;101935.94;5024722;27;97767;-53
2021/09/07 03:04:58;;;;;;;9.23;7.97;;;20.90;99.90;;;21.27;59.70;101928.97;5041858;27;97241;-49
2021/09/07 03:07:23;;;;;;;10.33;9.10;;;20.80;99.90;;;21.27;59.73;101928.97;5023267;27;97391;-48
2021/09/07 03:09:49;;;;;;;11.07;9.90;;;20.80;99.90;;;21.26;59.55;101932.56;5024473;27;97286;-51
2021/09/07 03:12:15;;;;;;;9.90;8.87;;;20.80;99.90;;;21.24;59.73;101935.31;5019883;27;97012;-50
2021/09/07 03:14:41;;;;;;;9.67;8.50;;;20.80;99.90;;;21.23;59.83;101938.97;5027554;27;98661;-53
2021/09/07 03:17:07;;;;;;;9.00;8.10;;;20.80;99.90;;;21.26;59.80;101937.94;5028915;27;100613;-50
2021/09/07 03:19:32;;;;;;;10.97;8.17;;;20.90;99.90;;;21.26;59.65;101932.56;5006409;27;97357;-52
2021/09/07 03:21:58;;;;;;;9.50;8.50;;;20.90;99.90;;;21.24;59.76;101937.13;5030868;27;97065;-52
2021/09/07 03:24:24;;;;;;;9.20;8.30;;;20.80;99.90;;;21.24;59.72;101939.81;5024651;27;98713;-52
2021/09/07 03:26:50;;;;;;;9.70;8.20;;;20.80;99.90;;;21.25;59.67;101931.69;5026415;27;98205;-53
2021/09/07 03:29:16;;;;;;;9.20;8.20;;;20.90;99.90;;;21.27;59.56;101934.31;5021546;27;97310;-53
2021/09/07 03:31:41;;;;;;;8.80;7.90;;;20.90;99.90;;;21.30;59.54;101931.44;5025410;27;97273;-50
2021/09/07 03:34:07;;;;;;;7.97;7.17;;;21.00;99.90;;;21.33;59.35;101937.47;5028283;27;99716;-54
2021/09/07 03:36:33;;;;;;;10.03;8.37;;;21.00;99.90;;;21.38;59.39;101929.16;5020738;27;104779;-51
2021/09/07 03:38:59;;;;;;;8.10;7.27;;;21.10;99.90;;;21.45;59.19;101937.69;5025779;27;97094;-52
2021/09/07 03:41:25;;;;;;;8.17;7.37;;;21.20;99.90;;;21.51;59.01;101937.31;5021382;27;103731;-50
2021/09/07 03:43:50;;;;;;;8.60;7.70;;;21.30;99.90;;;21.52;58.80;101945.28;5022031;27;97475;-51
2021/09/07 03:46:16;;;;;;;10.13;9.03;;;21.30;99.90;;;21.51;58.76;101932.81;5017065;27;116155;-54
2021/09/07 03:48:42;;;;;;;8.90;8.00;;;21.30;99.90;;;21.49;59.01;101933.88;5029503;27;97201;-53
2021/09/07 03:51:08;;;;;;;8.33;7.20;;;21.20;99.90;;;21.49;59.05;101934.72;5025368;27;97284;-52
2021/09/07 03:53:34;;;;;;;8.70;7.80;;;21.20;99.90;;;21.50;58.96;101925.72;5021243;27;97403;-53
2021/09/07 03:56:00;;;;;;;8.73;7.87;;;21.20;99.90;;;21.54;59.02;101937.13;5034888;27;98368;-53
2021/09/07 03:58:26;;;;;;;9.50;8.00;;;21.20;99.90;;;21.54;58.88;101935.28;5035815;27;102604;-54
2021/09/07 04:00:52;;;;;;;8.80;7.93;;;21.20;99.90;;;21.53;58.90;101935.41;5030673;27;97019;-54
2021/09/07 04:03:20;;;;;;;10.13;8.97;;;21.20;99.90;;;21.50;59.03;101932.91;5014693;27;99416;-53
2021/09/07 04:05:46;;;;;;;9.40;8.40;;;21.20;99.90;;;21.45;59.01;101929.66;5027643;27;97614;-52
2021/09/07 04:08:13;;;;;;;12.20;9.37;;;21.10;99.90;;;21.45;59.23;101937.69;5027982;27;98044;-49
2021/09/07 04:10:39;;;;;;;8.87;7.97;;;21.00;99.90;;;21.45;59.11;101933.19;5033767;27;97264;-50
2021/09/07 04:13:06;;;;;;;8.23;7.43;;;21.10;99.90;;;21.46;59.05;101934.91;5032847;27;98249;-52
2021/09/07 04:15:32;;;;;;;8.77;7.87;;;21.10;99.90;;;21.47;58.84;101936.66;5024515;27;97644;-53
2021/09/07 04:17:58;;;;;;;9.27;8.27;;;21.10;99.90;;;21.47;58.99;101935.78;5030753;27;97205;-52
2021/09/07 04:20:24;;;;;;;9.10;8.10;;;21.20;99.90;;;21.44;58.98;101934.16;5027069;27;97208;-53
2021/09/07 04:22:50;;;;;;;8.97;8.07;;;21.10;99.90;;;21.44;59.04;101939.53;5031497;27;96886;-51
2021/09/07 04:25:16;;;;;;;11.40;9.37;;;21.10;99.90;;;21.43;58.98;101945.00;5020188;27;98586;-49
2021/09/07 04:27:42;;;;;;;13.03;11.63;;;21.10;99.90;;;21.39;59.00;101944.28;5030921;27;97365;-51
2021/09/07 04:30:10;;;;;;;14.30;11.20;;;21.00;99.90;;;21.37;59.34;101952.44;5027424;27;97460;-50
2021/09/07 04:32:36;;;;;;;11.10;8.80;;;21.00;99.90;;;21.32;59.33;101937.59;5029467;27;100230;-53
2021/09/07 04:35:04;;;;;;;8.70;7.73;;;20.90;99.90;;;21.31;59.35;101947.44;5025932;27;99028;-50
2021/09/07 04:37:30;;;;;;;9.10;8.20;;;20.90;99.90;;;21.32;59.37;101935.75;5028234;27;97056;-54
2021/09/07 04:39:56;;;;;;;10.70;8.70;;;21.00;99.90;;;21.35;59.36;101942.75;5027964;27;97768;-55
2021/09/07 04:42:21;;;;;;;8.93;8.13;;;21.00;99.90;;;21.34;59.37;101941.91;5029452;27;98036;-47
2021/09/07 04:44:48;;;;;;;12.77;10.20;;;21.00;99.90;;;21.32;59.47;101940.25;5029384;27;97979;-53
2021/09/07 04:47:14;;;;;;;11.67;9.70;;;21.00;99.90;;;21.31;59.50;101935.84;5026648;27;98751;-48
2021/09/07 04:49:39;;;;;;;9.77;8.77;;;20.90;99.90;;;21.29;59.41;101938.63;5028217;27;96756;-49
2021/09/07 04:52:06;;;;;;;8.80;7.70;;;20.90;99.90;;;21.33;59.36;101939.31;5027809;27;97388;-52
2021/09/07 04:54:33;;;;;;;9.63;7.90;;;21.00;99.90;;;21.37;59.31;101935.47;5028828;27;99455;-51
2021/09/07 04:57:00;;;;;;;15.13;10.73;;;21.00;99.90;;;21.37;59.30;101935.47;5031426;27;97208;-51
2021/09/07 04:59:26;;;;;;;12.47;9.73;;;21.00;99.90;;;21.37;59.24;101939.00;5043014;27;99940;-51
2021/09/07 05:01:52;;;;;;;14.93;9.37;;;21.10;99.90;;;21.36;59.23;101944.47;5030739;27;99229;-54
2021/09/07 05:04:17;;;;;;;9.43;8.30;;;21.00;99.90;;;21.36;59.41;101945.34;5032109;27;97485;-52
2021/09/07 05:06:43;;;;;;;9.57;7.67;;;21.00;99.90;;;21.43;59.28;101961.97;5045738;27;97233;-52
2021/09/07 05:09:09;;;;;;;9.03;7.83;;;21.10;99.90;;;21.49;59.04;101961.56;5027721;27;97004;-47
2021/09/07 05:11:35;;;;;;;9.10;7.77;;;21.20;99.90;;;21.48;59.09;101954.47;5027976;27;109748;-51
2021/09/07 05:14:01;;;;;;;8.80;7.90;;;21.20;99.90;;;21.48;59.19;101954.47;5049144;27;98383;-53
2021/09/07 05:16:26;;;;;;;8.77;7.80;;;21.20;99.90;;;21.48;59.09;101951.78;5044409;27;107926;-53
2021/09/07 05:18:52;;;;;;;9.07;8.17;;;21.20;99.90;;;21.50;58.94;101949.88;5049266;27;97418;-54
2021/09/07 05:21:18;;;;;;;10.93;9.03;;;21.20;99.90;;;21.54;58.94;101947.84;5016075;27;99845;-53
2021/09/07 05:23:44;;;;;;;10.13;8.67;;;21.20;99.90;;;21.53;58.98;101951.50;5020071;27;100013;-49
2021/09/07 05:26:10;;;;;;;8.17;7.27;;;21.20;99.90;;;21.56;58.85;101945.97;5031496;27;97434;-52
2021/09/07 05:28:36;;;;;;;9.70;7.67;;;21.30;99.90;;;21.59;58.81;101957.38;5010272;27;97006;-49
2021/09/07 05:31:02;;;;;;;14.27;9.57;;;21.30;99.90;;;21.59;58.73;101952.00;5033899;27;97661;-49
2021/09/07 05:33:28;;;;;;;9.63;8.20;;;21.30;99.90;;;21.61;58.77;101955.47;5027211;27;97603;-53
2021/09/07 05:35:54;;;;;;;8.73;7.83;;;21.40;99.90;;;21.68;58.54;101956.78;5034028;27;96824;-50
2021/09/07 05:38:20;;;;;;;8.57;7.67;;;21.50;99.90;;;21.72;58.33;101964.69;5022569;27;97440;-51
2021/09/07 05:40:46;;;;;;;8.40;7.50;;;21.50;99.90;;;21.71;58.45;101954.91;5026083;27;99905;-50
2021/09/07 05:43:12;;;;;;;10.30;9.00;;;21.50;99.90;;;21.68;58.31;101946.03;5027232;27;97094;-54
2021/09/07 05:45:38;;;;;;;17.57;13.07;;;21.50;99.90;;;21.64;58.44;101954.41;5029143;27;98073;-52
2021/09/07 05:48:05;;;;;;;8.53;7.67;;;21.40;99.90;;;21.64;58.54;101960.63;5027072;27;97459;-51
2021/09/07 05:50:31;;;;;;;10.67;9.57;;;21.30;99.90;;;21.66;58.60;101956.03;5023946;27;98763;-53
2021/09/07 05:52:57;;;;;;;10.40;7.97;;;21.40;99.90;;;21.64;58.58;101949.88;5031352;27;96673;-51
2021/09/07 05:55:22;;;;;;;9.03;8.13;;;21.40;99.90;;;21.65;58.46;101958.81;5026866;27;97277;-50
2021/09/07 05:57:52;;;;;;;10.17;8.23;;;21.40;99.90;;;21.69;58.38;101961.19;5026083;27;97834;-52
2021/09/07 06:00:18;;;;;;;8.77;7.87;;;21.50;99.90;;;21.72;58.26;101951.25;5022106;27;97039;-47
2021/09/07 06:02:44;;;;;;;10.87;7.60;;;21.50;99.90;;;21.75;58.00;101948.38;5033652;27;99198;-47
2021/09/07 06:05:11;;;;;;;10.90;9.03;;;21.60;99.90;;;21.75;58.17;101961.78;5027784;27;99168;-58
2021/09/07 06:07:40;;;;;;;9.53;7.80;;;21.60;99.90;;;21.77;58.08;101954.50;5028190;27;97116;-49
2021/09/07 06:10:09;;;;;;;14.27;11.37;;;21.60;99.90;;;21.76;57.94;101952.78;5027011;27;97745;-52
2021/09/07 06:12:35;;;;;;;11.77;10.50;;;21.60;99.90;;;21.73;58.09;101959.22;5039696;27;98678;-53
2021/09/07 06:15:01;;;;;;;8.80;7.90;;;21.50;99.90;;;21.74;58.12;101960.06;5050544;27;97088;-52
2021/09/07 06:17:27;;;;;;;9.43;8.50;;;21.50;99.90;;;21.75;58.17;101961.78;5024901;27;97564;-48
2021/09/07 06:19:53;;;;;;;9.27;8.33;;;21.50;99.90;;;21.76;58.07;101964.38;5033379;27;99364;-51
2021/09/07 06:22:19;;;;;;;9.77;8.77;;;21.60;99.90;;;21.77;58.03;101965.25;5021739;27;99909;-48
2021/09/07 06:24:45;;;;;;;10.90;8.60;;;21.60;99.90;;;21.73;58.02;101963.72;5028441;27;97300;-48
2021/09/07 06:27:11;;;;;;;8.33;7.47;;;21.50;99.90;;;21.76;58.10;101967.06;5025278;27;97093;-56
2021/09/07 06:29:36;;;;;;;11.43;10.27;;;21.50;99.90;;;21.78;57.74;101972.34;5024717;27;102513;-50
2021/09/07 06:32:02;;;;;;;8.13;7.33;;;21.60;99.90;;;21.77;58.02;101965.25;5024899;27;98789;-50
2021/09/07 06:34:28;;;;;;;8.93;8.03;;;21.60;99.90;;;21.81;58.06;101972.16;5023631;27;97168;-51
2021/09/07 06:36:55;;;;;;;8.73;7.83;;;21.60;99.90;;;21.83;58.03;101976.47;5027050;27;97462;-47
2021/09/07 06:39:24;;;;;;;8.50;7.70;;;21.60;99.90;;;21.85;57.93;101973.72;5027370;27;99452;-47
2021/09/07 06:41:50;;;;;;;9.37;8.43;;;21.70;99.90;;;21.88;57.81;101969.00;5031955;27;98084;-53
2021/09/07 06:44:16;;;;;;;8.40;7.60;;;21.70;99.90;;;21.93;57.65;101971.38;5022890;27;97675;-48
2021/09/07 06:46:41;;;;;;;9.07;8.10;;;21.80;99.90;;;21.96;57.53;101965.81;5031902;27;96771;-52
2021/09/07 06:49:07;;;;;;;8.43;7.53;;;21.90;99.90;;;22.01;57.59;101982.53;5022954;27;107701;-54
2021/09/07 06:51:33;;;;;;;8.90;7.97;;;21.90;99.90;;;22.05;57.17;101989.47;5024901;27;99317;-52
2021/09/07 06:53:59;;;;;;;9.47;8.57;;;22.00;99.90;;;22.08;57.36;101983.88;5027578;27;97397;-52
2021/09/07 06:56:25;;;;;;;11.20;9.13;;;22.00;99.90;;;22.09;57.22;101972.19;5023541;27;96995;-49
2021/09/07 06:58:51;;;;;;;9.70;8.67;;;22.00;99.90;;;22.09;57.13;101972.19;5027429;27;96820;-52
2021/09/07 07:01:17;;;;;;;9.63;8.63;;;22.00;99.90;;;22.07;57.30;101984.84;5023054;27;97238;-52
2021/09/07 07:03:42;;;;;;;24.33;18.17;;;21.90;99.90;;;22.01;56.91;101970.91;5047004;27;97233;-53
2021/09/07 07:06:08;;;;;;;25.70;18.33;;;21.80;99.90;;;21.92;56.36;101981.28;5027226;27;97365;-51
2021/09/07 07:08:34;;;;;;;8.87;8.00;;;21.70;99.90;;;21.92;57.72;101991.16;5024403;27;97538;-48
2021/09/07 07:11:00;;;;;;;8.57;7.77;;;21.70;99.90;;;21.95;57.61;101985.59;5029068;27;97317;-55
2021/09/07 07:13:26;;;;;;;20.07;15.80;;;21.70;99.90;;;21.95;57.46;101994.50;5027457;27;99407;-47
2021/09/07 07:15:51;;;;;;;24.60;18.97;;;21.80;99.90;;;21.93;57.34;101998.25;5030708;27;97850;-53
2021/09/07 07:18:18;;;;;;;23.27;18.73;;;21.70;99.90;;;21.88;57.22;102001.22;5025392;27;108944;-50
2021/09/07 07:20:44;;;;;;;10.00;9.00;;;21.60;99.90;;;21.84;57.89;102004.19;5009117;27;98151;-49
2021/09/07 07:23:10;;;;;;;8.60;7.70;;;21.60;99.90;;;21.83;58.03;102013.19;5031257;27;97484;-52
2021/09/07 07:25:36;;;;;;;9.37;8.47;;;21.50;99.90;;;21.83;58.03;102005.13;5021329;27;96986;-56
2021/09/07 07:28:02;;;;;;;9.23;8.23;;;21.60;99.90;;;21.87;58.01;102009.38;5043211;27;97753;-52
2021/09/07 07:30:28;;;;;;;8.83;7.60;;;21.70;99.90;;;21.89;57.77;102008.31;5025763;27;97085;-48
2021/09/07 07:32:54;;;;;;;8.70;7.80;;;21.70;99.90;;;21.92;57.62;102009.97;5033510;27;97505;-48
2021/09/07 07:35:21;;;;;;;9.50;8.50;;;21.80;99.90;;;21.94;57.71;102016.09;5015600;27;102420;-50
2021/09/07 07:37:47;;;;;;;9.33;8.43;;;21.80;99.90;;;21.95;57.41;102012.44;5027653;27;99480;-50
2021/09/07 07:40:13;;;;;;;9.17;8.00;;;21.80;99.90;;;21.98;57.47;102013.09;5028774;27;98104;-53
2021/09/07 07:42:39;;;;;;;9.67;8.67;;;21.90;99.90;;;22.01;57.37;102012.09;5032781;27;96947;-52
2021/09/07 07:45:06;;;;;;;8.33;7.53;;;21.90;99.90;;;22.02;57.45;102013.81;5038671;27;98518;-54
2021/09/07 07:47:31;;;;;;;9.97;8.90;;;21.90;99.90;;;22.05;57.23;102010.97;5029431;27;98734;-53
2021/09/07 07:49:58;;;;;;;8.40;7.57;;;22.00;99.90;;;22.09;57.09;102009.78;5047744;27;97715;-46
2021/09/07 07:52:25;;;;;;;16.10;12.43;;;22.00;99.90;;;22.04;56.53;102006.50;5027761;27;97402;-48
2021/09/07 07:54:51;;;;;;;9.10;8.20;;;22.00;99.90;;;22.08;57.24;102010.75;5029921;27;103721;-54
2021/09/07 07:57:20;;;;;;;9.43;8.53;;;22.00;99.90;;;22.11;57.17;102017.75;5042865;27;98546;-51
2021/09/07 07:59:46;;;;;;;8.70;7.70;;;22.00;99.90;;;22.13;57.05;102016.72;5045231;27;100202;-48
2021/09/07 08:02:12;;;;;;;9.20;8.30;;;22.10;99.90;;;22.16;57.04;102011.16;5028489;27;97629;-58
2021/09/07 08:04:39;;;;;;;9.23;7.83;;;22.10;99.90;;;22.19;56.90;102010.09;5033094;27;97119;-50
2021/09/07 08:07:06;;;;;;;9.10;8.20;;;22.10;99.90;;;22.19;56.83;102016.31;5033840;27;97250;-50
2021/09/07 08:09:32;;;;;;;8.83;7.93;;;22.10;99.90;;;22.21;56.73;102016.22;5024390;27;97326;-49
2021/09/07 08:11:59;;;;;;;8.60;7.70;;;22.20;99.90;;;22.22;56.62;102009.88;5037180;27;97350;-50
2021/09/07 08:14:26;;;;;;;8.30;7.40;;;22.20;99.90;;;22.23;56.52;102017.00;5028092;27;97515;-54
2021/09/07 08:16:52;;;;;;;8.70;7.80;;;22.20;99.90;;;22.25;56.79;102018.63;5024946;27;98700;-48
2021/09/07 08:19:18;;;;;;;9.07;8.17;;;22.20;99.90;;;22.27;56.62;102016.69;5026268;27;97585;-53
2021/09/07 08:21:44;;;;;;;27.03;19.33;;;22.20;99.90;;;22.26;56.23;102017.66;5034546;27;96841;-55
2021/09/07 08:24:10;;;;;;;8.57;7.70;;;22.20;99.90;;;22.26;56.58;102023.03;5033086;27;96689;-54
2021/09/07 08:26:36;;;;;;;8.90;8.00;;;22.20;99.90;;;22.27;56.62;102024.75;5033099;27;104668;-50
2021/09/07 08:29:02;;;;;;;17.77;14.00;;;22.20;99.90;;;22.27;56.46;102027.44;5031499;27;99939;-52
2021/09/07 08:31:28;;;;;;;28.97;21.60;;;22.20;99.90;;;22.24;54.40;102024.09;5026442;27;96944;-49
2021/09/07 08:33:54;;;;;;;9.70;8.67;;;22.20;99.90;;;22.24;56.64;102026.78;5032028;27;97766;-49
2021/09/07 08:36:20;;;;;;;9.73;8.73;;;22.10;99.90;;;22.26;56.83;102022.16;5020105;27;98422;-51
2021/09/07 08:38:46;;;;;;;8.53;7.73;;;22.20;99.90;;;22.27;56.76;102027.44;5020219;27;100150;-47
2021/09/07 08:41:19;;;;;;;9.00;8.10;;;22.20;99.90;;;22.27;56.63;102030.13;5022841;27;97190;-55
2021/09/07 08:43:50;;;;;;;9.43;8.43;;;22.20;99.90;;;22.29;56.62;102031.88;5039683;27;96841;-51
2021/09/07 08:46:17;;;;;;;12.43;9.93;;;22.20;99.90;;;22.31;56.59;102025.44;5019603;27;98541;-55
2021/09/07 08:48:45;;;;;;;9.20;8.20;;;22.30;99.90;;;22.32;56.52;102026.31;5020365;27;98634;-52
2021/09/07 08:51:12;;;;;;;10.83;9.47;;;22.30;99.90;;;22.33;56.17;102019.97;5029117;27;97908;-53
2021/09/07 08:53:38;;;;;;;24.77;21.73;;;22.30;99.90;;;22.31;55.99;102027.28;5009728;27;97357;-52
2021/09/07 08:56:06;;;;;;;9.70;8.70;;;22.30;99.90;;;22.33;56.54;102028.03;5032408;27;98745;-49
2021/09/07 08:58:32;;;;;;;9.20;8.30;;;22.20;99.90;;;22.32;56.57;102029.00;5025051;27;96884;-50
2021/09/07 09:01:09;;;;;;;9.57;8.63;;;22.30;99.90;;;22.35;56.52;102026.09;5033001;27;97214;-52
2021/09/07 09:03:34;;;;;;;31.83;22.57;;;22.30;99.90;;;22.34;55.97;102025.25;5025360;27;97487;-53
2021/09/07 09:06:00;;;;;;;27.87;22.53;;;22.30;99.90;;;22.32;55.96;102029.00;5032885;27;100018;-55
2021/09/07 09:08:26;;;;;;;16.17;13.00;;;22.30;99.90;;;22.34;56.41;102027.06;5024477;27;98647;-49
2021/09/07 09:11:08;;;;;;;9.33;8.43;;;22.30;99.90;;;22.35;56.45;102026.09;5013340;27;97668;-51
2021/09/07 09:13:47;;;;;;;9.50;8.57;;;22.30;99.90;;;22.35;56.48;102026.09;5020385;27;97071;-53
2021/09/07 09:16:17;;;;;;;26.40;20.97;;;22.30;99.90;;;22.33;54.18;102022.66;5029350;27;97474;-51
2021/09/07 09:18:48;;;;;;;9.43;8.53;;;22.30;99.90;;;22.36;56.32;102022.44;5026169;27;97567;-47
2021/09/07 09:21:30;;;;;;;10.00;9.00;;;22.30;99.90;;;22.38;56.35;102026.75;5024823;27;97436;-49
2021/09/07 09:24:19;;;;;;;9.23;8.23;;;22.30;99.90;;;22.40;56.22;102019.47;5031322;27;97049;-51
2021/09/07 09:26:57;;;;;;;23.43;17.67;;;22.30;99.90;;;22.40;56.11;102019.47;5033242;27;101764;-49
2021/09/07 09:29:25;;;;;;;29.17;18.77;;;22.40;99.90;;;22.37;55.09;102026.88;5011268;27;98201;-51
2021/09/07 09:31:57;;;;;;;21.93;17.63;;;22.30;99.90;;;22.37;55.95;102016.13;5034242;27;97730;-50
2021/09/07 09:34:24;;;;;;;26.50;19.30;;;22.30;99.90;;;22.32;52.67;102015.56;5038349;27;97359;-51
2021/09/07 09:36:56;;;;;;;24.97;19.10;;;22.30;99.90;;;22.29;53.10;102010.38;5030868;27;98100;-49
2021/09/07 09:39:45;;;;;;;23.43;18.13;;;22.10;99.90;;;22.26;55.27;102019.47;5022997;27;101738;-49
2021/09/07 09:42:28;;;;;;;28.67;19.83;;;22.10;99.90;;;22.22;53.83;102013.44;5028879;27;97347;-54
2021/09/07 09:45:06;;;;;;;16.60;13.40;;;22.10;99.90;;;22.23;56.32;102012.47;5039200;27;97667;-54
2021/09/07 09:47:52;;;;;;;11.37;9.57;;;22.10;99.90;;;22.25;56.41;102013.25;5032328;27;100518;-49
2021/09/07 09:50:19;;;;;;;9.67;8.67;;;22.20;99.90;;;22.25;56.46;102015.94;5036118;27;120355;-52
2021/09/07 09:52:47;;;;;;;22.23;17.20;;;22.20;99.90;;;22.27;55.27;102003.25;5030637;27;96881;-53
2021/09/07 09:55:17;;;;;;;24.63;18.20;;;22.20;99.90;;;22.27;53.12;102007.75;5028914;27;97236;-55
2021/09/07 09:57:46;;;;;;;10.30;9.20;;;22.20;99.90;;;22.30;56.16;102006.72;5030196;27;98445;-52
2021/09/07 10:00:16;;;;;;;26.87;19.70;;;22.20;99.90;;;22.33;55.90;102009.22;5023214;27;98169;-59
2021/09/07 10:02:44;;;;;;;11.10;9.93;;;22.20;99.90;;;22.31;56.35;101998.56;5038604;27;97810;-54
2021/09/07 10:05:13;;;;;;;9.77;8.40;;;22.30;99.90;;;22.36;56.29;101996.44;5033933;27;97060;-51
2021/09/07 10:07:39;;;;;;;28.37;19.53;;;22.30;99.90;;;22.40;55.97;101991.72;5035540;27;103219;-53